sensor_id;sensor_type;location;lat;lon;timestamp;pressure;altitude;pressure_sealevel;temperature;humidity
6218;BME280;3142;48.206;11.550;2022-12-20T00:01:51;96464.25;;;1.48;91.01
6218;BME280;3142;48.206;11.550;2022-12-20T00:04:17;96461.13;;;1.45;91.10
6218;BME280;3142;48.206;11.550;2022-12-20T00:06:44;96461.94;;;1.45;90.47
6218;BME280;3142;48.206;11.550;2022-12-20T00:09:10;96462.19;;;1.42;90.08
6218;BME280;3142;48.206;11.550;2022-12-20T00:11:38;96454.31;;;1.44;90.38
6218;BME280;3142;48.206;11.550;2022-12-20T00:14:05;96463.00;;;1.43;90.53
6218;BME280;3142;48.206;11.550;2022-12-20T00:16:35;96472.63;;;1.41;89.61
6218;BME280;3142;48.206;11.550;2022-12-20T00:19:04;96477.22;;;1.37;89.94
6218;BME280;3142;48.206;11.550;2022-12-20T00:21:32;96464.69;;;1.33;89.65
6218;BME280;3142;48.206;11.550;2022-12-20T00:23:59;96465.75;;;1.30;89.30
6218;BME280;3142;48.206;11.550;2022-12-20T00:26:27;96461.16;;;1.34;89.50
6218;BME280;3142;48.206;11.550;2022-12-20T00:28:55;96451.78;;;1.33;89.08
6218;BME280;3142;48.206;11.550;2022-12-20T00:31:23;96443.38;;;1.31;88.73
6218;BME280;3142;48.206;11.550;2022-12-20T00:33:52;96447.44;;;1.33;88.36
6218;BME280;3142;48.206;11.550;2022-12-20T00:36:21;96442.31;;;1.33;88.49
6218;BME280;3142;48.206;11.550;2022-12-20T00:38:49;96442.44;;;1.32;88.37
6218;BME280;3142;48.206;11.550;2022-12-20T00:41:17;96438.59;;;1.26;88.35
6218;BME280;3142;48.206;11.550;2022-12-20T00:43:44;96442.25;;;1.24;88.02
6218;BME280;3142;48.206;11.550;2022-12-20T00:46:12;96437.09;;;1.24;87.82
6218;BME280;3142;48.206;11.550;2022-12-20T00:48:39;96431.94;;;1.24;87.84
6218;BME280;3142;48.206;11.550;2022-12-20T00:51:09;96431.69;;;1.27;87.98
6218;BME280;3142;48.206;11.550;2022-12-20T00:53:37;96440.38;;;1.26;87.60
6218;BME280;3142;48.206;11.550;2022-12-20T00:56:05;96440.91;;;1.29;88.04
6218;BME280;3142;48.206;11.550;2022-12-20T00:58:32;96450.84;;;1.34;88.07
6218;BME280;3142;48.206;11.550;2022-12-20T01:00:58;96445.94;;;1.31;87.34
6218;BME280;3142;48.206;11.550;2022-12-20T01:03:25;96448.09;;;1.26;88.00
6218;BME280;3142;48.206;11.550;2022-12-20T01:05:54;96453.94;;;1.28;88.11
6218;BME280;3142;48.206;11.550;2022-12-20T01:08:23;96449.91;;;1.35;87.73
6218;BME280;3142;48.206;11.550;2022-12-20T01:10:57;96446.91;;;1.30;87.72
6218;BME280;3142;48.206;11.550;2022-12-20T01:13:24;96444.19;;;1.31;87.71
6218;BME280;3142;48.206;11.550;2022-12-20T01:15:50;96441.47;;;1.33;87.54
6218;BME280;3142;48.206;11.550;2022-12-20T01:18:17;96440.53;;;1.34;87.61
6218;BME280;3142;48.206;11.550;2022-12-20T01:20:43;96445.56;;;1.35;87.70
6218;BME280;3142;48.206;11.550;2022-12-20T01:23:09;96445.56;;;1.35;87.71
6218;BME280;3142;48.206;11.550;2022-12-20T01:25:37;96447.31;;;1.35;87.68
6218;BME280;3142;48.206;11.550;2022-12-20T01:28:04;96439.84;;;1.32;87.46
6218;BME280;3142;48.206;11.550;2022-12-20T01:30:31;96440.09;;;1.29;87.20
6218;BME280;3142;48.206;11.550;2022-12-20T01:32:57;96435.78;;;1.29;86.99
6218;BME280;3142;48.206;11.550;2022-12-20T01:35:24;96422.75;;;1.31;87.50
6218;BME280;3142;48.206;11.550;2022-12-20T01:37:50;96419.91;;;1.34;87.36
6218;BME280;3142;48.206;11.550;2022-12-20T01:40:17;96419.09;;;1.33;87.28
6218;BME280;3142;48.206;11.550;2022-12-20T01:42:45;96421.69;;;1.33;87.14
6218;BME280;3142;48.206;11.550;2022-12-20T01:45:20;96433.50;;;1.36;87.31
6218;BME280;3142;48.206;11.550;2022-12-20T01:47:51;96437.84;;;1.35;87.36
6218;BME280;3142;48.206;11.550;2022-12-20T01:50:18;96438.66;;;1.36;87.37
6218;BME280;3142;48.206;11.550;2022-12-20T01:52:45;96433.41;;;1.37;87.82
6218;BME280;3142;48.206;11.550;2022-12-20T01:55:16;96436.78;;;1.38;87.41
6218;BME280;3142;48.206;11.550;2022-12-20T01:57:47;96429.75;;;1.40;87.44
6218;BME280;3142;48.206;11.550;2022-12-20T02:00:17;96427.31;;;1.38;87.34
6218;BME280;3142;48.206;11.550;2022-12-20T02:02:45;96424.94;;;1.35;87.51
6218;BME280;3142;48.206;11.550;2022-12-20T02:05:13;96421.00;;;1.31;87.65
6218;BME280;3142;48.206;11.550;2022-12-20T02:07:42;96428.97;;;1.28;87.19
6218;BME280;3142;48.206;11.550;2022-12-20T02:10:11;96435.09;;;1.27;87.29
6218;BME280;3142;48.206;11.550;2022-12-20T02:12:40;96433.44;;;1.26;86.92
6218;BME280;3142;48.206;11.550;2022-12-20T02:15:28;96421.38;;;1.27;87.22
6218;BME280;3142;48.206;11.550;2022-12-20T02:18:06;96421.63;;;1.24;87.03
6218;BME280;3142;48.206;11.550;2022-12-20T02:20:56;96419.75;;;1.26;86.99
6218;BME280;3142;48.206;11.550;2022-12-20T02:23:52;96423.94;;;1.27;86.57
6218;BME280;3142;48.206;11.550;2022-12-20T02:26:36;96426.03;;;1.33;86.81
6218;BME280;3142;48.206;11.550;2022-12-20T02:29:22;96430.34;;;1.32;87.15
6218;BME280;3142;48.206;11.550;2022-12-20T02:31:54;96428.47;;;1.34;86.91
6218;BME280;3142;48.206;11.550;2022-12-20T02:34:26;96421.56;;;1.35;87.01
6218;BME280;3142;48.206;11.550;2022-12-20T02:36:54;96426.72;;;1.35;87.01
6218;BME280;3142;48.206;11.550;2022-12-20T02:39:21;96417.00;;;1.38;86.83
6218;BME280;3142;48.206;11.550;2022-12-20T02:41:51;96417.22;;;1.35;86.41
6218;BME280;3142;48.206;11.550;2022-12-20T02:44:22;96422.50;;;1.34;86.95
6218;BME280;3142;48.206;11.550;2022-12-20T02:47:13;96418.16;;;1.34;86.84
6218;BME280;3142;48.206;11.550;2022-12-20T02:49:41;96420.50;;;1.37;86.94
6218;BME280;3142;48.206;11.550;2022-12-20T02:52:11;96406.78;;;1.37;86.89
6218;BME280;3142;48.206;11.550;2022-12-20T02:54:39;96404.19;;;1.37;86.90
6218;BME280;3142;48.206;11.550;2022-12-20T02:57:10;96406.78;;;1.37;86.81
6218;BME280;3142;48.206;11.550;2022-12-20T02:59:43;96405.88;;;1.38;86.85
6218;BME280;3142;48.206;11.550;2022-12-20T03:02:12;96408.66;;;1.35;86.86
6218;BME280;3142;48.206;11.550;2022-12-20T03:04:40;96409.47;;;1.35;87.26
6218;BME280;3142;48.206;11.550;2022-12-20T03:07:09;96403.38;;;1.36;87.47
6218;BME280;3142;48.206;11.550;2022-12-20T03:09:38;96398.03;;;1.49;87.05
6218;BME280;3142;48.206;11.550;2022-12-20T03:12:05;96390.50;;;1.57;86.91
6218;BME280;3142;48.206;11.550;2022-12-20T03:14:32;96387.72;;;1.70;87.02
6218;BME280;3142;48.206;11.550;2022-12-20T03:16:58;96396.06;;;1.83;86.94
6218;BME280;3142;48.206;11.550;2022-12-20T03:19:26;96403.69;;;1.85;87.14
6218;BME280;3142;48.206;11.550;2022-12-20T03:21:53;96405.38;;;1.74;87.57
6218;BME280;3142;48.206;11.550;2022-12-20T03:24:19;96407.66;;;1.68;88.36
6218;BME280;3142;48.206;11.550;2022-12-20T03:26:46;96402.66;;;1.66;88.55
6218;BME280;3142;48.206;11.550;2022-12-20T03:29:12;96398.78;;;1.61;88.16
6218;BME280;3142;48.206;11.550;2022-12-20T03:31:39;96396.59;;;1.56;88.66
6218;BME280;3142;48.206;11.550;2022-12-20T03:34:06;96385.47;;;1.56;88.08
6218;BME280;3142;48.206;11.550;2022-12-20T03:36:34;96383.03;;;1.54;88.00
6218;BME280;3142;48.206;11.550;2022-12-20T03:39:00;96379.63;;;1.54;88.37
6218;BME280;3142;48.206;11.550;2022-12-20T03:41:27;96367.22;;;1.68;88.41
6218;BME280;3142;48.206;11.550;2022-12-20T03:43:53;96359.69;;;1.86;87.69
6218;BME280;3142;48.206;11.550;2022-12-20T03:46:19;96352.00;;;2.05;88.06
6218;BME280;3142;48.206;11.550;2022-12-20T03:48:46;96344.03;;;2.18;88.44
6218;BME280;3142;48.206;11.550;2022-12-20T03:51:12;96348.47;;;2.37;88.13
6218;BME280;3142;48.206;11.550;2022-12-20T03:53:40;96346.31;;;2.52;88.65
6218;BME280;3142;48.206;11.550;2022-12-20T03:56:07;96351.72;;;2.58;88.54
6218;BME280;3142;48.206;11.550;2022-12-20T03:58:33;96345.09;;;2.65;88.67
6218;BME280;3142;48.206;11.550;2022-12-20T04:01:00;96350.66;;;2.71;89.00
6218;BME280;3142;48.206;11.550;2022-12-20T04:03:26;96352.97;;;2.74;88.71
6218;BME280;3142;48.206;11.550;2022-12-20T04:05:53;96360.72;;;2.83;89.11
6218;BME280;3142;48.206;11.550;2022-12-20T04:08:19;96359.13;;;2.92;88.61
6218;BME280;3142;48.206;11.550;2022-12-20T04:10:47;96357.06;;;2.95;88.56
6218;BME280;3142;48.206;11.550;2022-12-20T04:13:31;96367.41;;;2.86;88.27
6218;BME280;3142;48.206;11.550;2022-12-20T04:15:57;96376.63;;;2.69;88.62
6218;BME280;3142;48.206;11.550;2022-12-20T04:18:24;96378.78;;;2.54;89.07
6218;BME280;3142;48.206;11.550;2022-12-20T04:20:51;96375.09;;;2.37;88.61
6218;BME280;3142;48.206;11.550;2022-12-20T04:23:18;96370.00;;;2.17;88.52
6218;BME280;3142;48.206;11.550;2022-12-20T04:25:44;96373.25;;;2.09;88.55
6218;BME280;3142;48.206;11.550;2022-12-20T04:28:12;96368.31;;;1.96;88.72
6218;BME280;3142;48.206;11.550;2022-12-20T04:30:39;96376.69;;;1.89;88.33
6218;BME280;3142;48.206;11.550;2022-12-20T04:33:05;96377.34;;;1.81;88.03
6218;BME280;3142;48.206;11.550;2022-12-20T04:35:32;96372.41;;;1.78;88.43
6218;BME280;3142;48.206;11.550;2022-12-20T04:37:58;96367.38;;;1.76;88.36
6218;BME280;3142;48.206;11.550;2022-12-20T04:40:24;96365.34;;;1.70;87.63
6218;BME280;3142;48.206;11.550;2022-12-20T04:42:51;96369.47;;;1.62;88.07
6218;BME280;3142;48.206;11.550;2022-12-20T04:45:19;96357.00;;;1.57;87.74
6218;BME280;3142;48.206;11.550;2022-12-20T04:47:45;96360.09;;;1.51;87.52
6218;BME280;3142;48.206;11.550;2022-12-20T04:50:12;96354.94;;;1.51;87.43
6218;BME280;3142;48.206;11.550;2022-12-20T04:52:38;96354.34;;;1.47;87.34
6218;BME280;3142;48.206;11.550;2022-12-20T04:55:22;96358.00;;;1.45;87.50
6218;BME280;3142;48.206;11.550;2022-12-20T04:57:49;96356.25;;;1.45;87.19
6218;BME280;3142;48.206;11.550;2022-12-20T05:00:16;96350.94;;;1.47;86.95
6218;BME280;3142;48.206;11.550;2022-12-20T05:02:44;96344.03;;;1.47;86.88
6218;BME280;3142;48.206;11.550;2022-12-20T05:05:10;96348.94;;;1.51;86.59
6218;BME280;3142;48.206;11.550;2022-12-20T05:07:37;96338.38;;;1.54;86.74
6218;BME280;3142;48.206;11.550;2022-12-20T05:10:04;96327.81;;;1.57;86.95
6218;BME280;3142;48.206;11.550;2022-12-20T05:12:30;96318.59;;;1.64;87.38
6218;BME280;3142;48.206;11.550;2022-12-20T05:14:57;96308.88;;;1.67;87.16
6218;BME280;3142;48.206;11.550;2022-12-20T05:17:23;96310.38;;;1.70;87.46
6218;BME280;3142;48.206;11.550;2022-12-20T05:19:51;96304.81;;;1.74;87.76
6218;BME280;3142;48.206;11.550;2022-12-20T05:22:17;96307.13;;;1.77;88.09
6218;BME280;3142;48.206;11.550;2022-12-20T05:25:02;96317.75;;;1.84;87.88
6218;BME280;3142;48.206;11.550;2022-12-20T05:27:46;96302.00;;;1.87;88.20
6218;BME280;3142;48.206;11.550;2022-12-20T05:30:12;96303.25;;;2.02;88.46
6218;BME280;3142;48.206;11.550;2022-12-20T05:32:40;96295.28;;;2.15;88.53
6218;BME280;3142;48.206;11.550;2022-12-20T05:35:08;96287.16;;;2.29;89.71
6218;BME280;3142;48.206;11.550;2022-12-20T05:37:35;96289.91;;;2.47;89.38
6218;BME280;3142;48.206;11.550;2022-12-20T05:40:02;96279.56;;;2.57;89.68
6218;BME280;3142;48.206;11.550;2022-12-20T05:42:29;96284.44;;;2.60;90.09
6218;BME280;3142;48.206;11.550;2022-12-20T05:44:55;96286.78;;;2.63;89.42
6218;BME280;3142;48.206;11.550;2022-12-20T05:47:22;96281.34;;;2.66;89.86
6218;BME280;3142;48.206;11.550;2022-12-20T05:49:49;96277.38;;;2.72;90.30
6218;BME280;3142;48.206;11.550;2022-12-20T05:52:17;96266.53;;;2.78;90.25
6218;BME280;3142;48.206;11.550;2022-12-20T05:54:43;96263.38;;;2.84;89.57
6218;BME280;3142;48.206;11.550;2022-12-20T05:57:09;96256.84;;;2.89;89.90
6218;BME280;3142;48.206;11.550;2022-12-20T05:59:36;96265.28;;;2.91;89.88
6218;BME280;3142;48.206;11.550;2022-12-20T06:02:03;96271.13;;;2.84;89.86
6218;BME280;3142;48.206;11.550;2022-12-20T06:04:31;96288.94;;;2.67;90.50
6218;BME280;3142;48.206;11.550;2022-12-20T06:06:57;96282.28;;;2.55;90.29
6218;BME280;3142;48.206;11.550;2022-12-20T06:09:26;96279.44;;;2.49;91.02
6218;BME280;3142;48.206;11.550;2022-12-20T06:11:52;96268.31;;;2.48;91.20
6218;BME280;3142;48.206;11.550;2022-12-20T06:14:19;96263.69;;;2.61;89.96
6218;BME280;3142;48.206;11.550;2022-12-20T06:16:46;96267.19;;;2.70;90.02
6218;BME280;3142;48.206;11.550;2022-12-20T06:19:12;96272.50;;;2.78;89.91
6218;BME280;3142;48.206;11.550;2022-12-20T06:21:39;96267.19;;;2.80;89.09
6218;BME280;3142;48.206;11.550;2022-12-20T06:24:06;96270.19;;;2.75;89.01
6218;BME280;3142;48.206;11.550;2022-12-20T06:26:33;96280.94;;;2.61;89.95
6218;BME280;3142;48.206;11.550;2022-12-20T06:29:01;96286.09;;;2.51;90.57
6218;BME280;3142;48.206;11.550;2022-12-20T06:31:27;96269.38;;;2.46;90.38
6218;BME280;3142;48.206;11.550;2022-12-20T06:33:54;96280.25;;;2.40;90.12
6218;BME280;3142;48.206;11.550;2022-12-20T06:36:20;96274.09;;;2.31;90.19
6218;BME280;3142;48.206;11.550;2022-12-20T06:38:47;96284.84;;;2.26;90.02
6218;BME280;3142;48.206;11.550;2022-12-20T06:41:13;96283.22;;;2.25;90.42
6218;BME280;3142;48.206;11.550;2022-12-20T06:43:41;96286.44;;;2.18;89.10
6218;BME280;3142;48.206;11.550;2022-12-20T06:46:07;96292.56;;;2.07;90.01
6218;BME280;3142;48.206;11.550;2022-12-20T06:48:34;96290.38;;;2.02;89.69
6218;BME280;3142;48.206;11.550;2022-12-20T06:51:01;96283.56;;;2.01;89.68
6218;BME280;3142;48.206;11.550;2022-12-20T06:53:27;96284.66;;;1.99;89.58
6218;BME280;3142;48.206;11.550;2022-12-20T06:55:53;96278.13;;;2.04;89.25
6218;BME280;3142;48.206;11.550;2022-12-20T06:58:20;96274.59;;;2.05;88.52
6218;BME280;3142;48.206;11.550;2022-12-20T07:00:48;96282.06;;;1.99;88.60
6218;BME280;3142;48.206;11.550;2022-12-20T07:03:15;96277.47;;;1.93;88.25
6218;BME280;3142;48.206;11.550;2022-12-20T07:05:41;96271.88;;;1.88;88.33
6218;BME280;3142;48.206;11.550;2022-12-20T07:08:08;96276.19;;;1.87;89.03
6218;BME280;3142;48.206;11.550;2022-12-20T07:10:35;96272.53;;;1.90;89.09
6218;BME280;3142;48.206;11.550;2022-12-20T07:13:02;96266.84;;;1.86;88.08
6218;BME280;3142;48.206;11.550;2022-12-20T07:15:29;96272.00;;;1.86;88.58
6218;BME280;3142;48.206;11.550;2022-12-20T07:17:57;96269.69;;;1.83;88.46
6218;BME280;3142;48.206;11.550;2022-12-20T07:20:23;96278.91;;;1.86;88.53
6218;BME280;3142;48.206;11.550;2022-12-20T07:22:50;96279.59;;;1.88;88.49
6218;BME280;3142;48.206;11.550;2022-12-20T07:25:16;96272.41;;;1.91;88.68
6218;BME280;3142;48.206;11.550;2022-12-20T07:27:45;96268.34;;;1.89;88.09
6218;BME280;3142;48.206;11.550;2022-12-20T07:30:12;96263.16;;;1.89;88.10
6218;BME280;3142;48.206;11.550;2022-12-20T07:32:39;96264.00;;;1.89;88.08
6218;BME280;3142;48.206;11.550;2022-12-20T07:35:08;96276.66;;;1.92;88.75
6218;BME280;3142;48.206;11.550;2022-12-20T07:37:35;96279.78;;;1.96;88.49
6218;BME280;3142;48.206;11.550;2022-12-20T07:40:02;96273.53;;;1.98;88.38
6218;BME280;3142;48.206;11.550;2022-12-20T07:42:29;96288.88;;;2.00;88.01
6218;BME280;3142;48.206;11.550;2022-12-20T07:44:55;96289.41;;;2.03;88.36
6218;BME280;3142;48.206;11.550;2022-12-20T07:47:22;96288.34;;;2.06;88.13
6218;BME280;3142;48.206;11.550;2022-12-20T07:49:48;96294.75;;;2.12;88.46
6218;BME280;3142;48.206;11.550;2022-12-20T07:52:18;96297.72;;;2.17;88.26
6218;BME280;3142;48.206;11.550;2022-12-20T07:54:47;96299.75;;;2.13;87.32
6218;BME280;3142;48.206;11.550;2022-12-20T07:57:19;96297.31;;;2.12;88.12
6218;BME280;3142;48.206;11.550;2022-12-20T07:59:50;96306.00;;;2.11;87.71
6218;BME280;3142;48.206;11.550;2022-12-20T08:02:21;96311.84;;;2.13;87.90
6218;BME280;3142;48.206;11.550;2022-12-20T08:04:49;96312.53;;;2.15;87.90
6218;BME280;3142;48.206;11.550;2022-12-20T08:07:17;96299.34;;;2.18;87.58
6218;BME280;3142;48.206;11.550;2022-12-20T08:09:44;96291.88;;;2.15;87.23
6218;BME280;3142;48.206;11.550;2022-12-20T08:12:13;96291.06;;;2.14;87.50
6218;BME280;3142;48.206;11.550;2022-12-20T08:14:41;96297.72;;;2.17;86.55
6218;BME280;3142;48.206;11.550;2022-12-20T08:17:08;96297.47;;;2.20;87.00
6218;BME280;3142;48.206;11.550;2022-12-20T08:19:36;96298.16;;;2.22;86.66
6218;BME280;3142;48.206;11.550;2022-12-20T08:22:03;96297.75;;;2.26;87.21
6218;BME280;3142;48.206;11.550;2022-12-20T08:24:32;96282.94;;;2.28;87.28
6218;BME280;3142;48.206;11.550;2022-12-20T08:26:58;96275.88;;;2.21;87.50
6218;BME280;3142;48.206;11.550;2022-12-20T08:29:25;96279.97;;;2.23;88.12
6218;BME280;3142;48.206;11.550;2022-12-20T08:31:51;96276.69;;;2.21;88.20
6218;BME280;3142;48.206;11.550;2022-12-20T08:34:18;96274.66;;;2.25;88.38
6218;BME280;3142;48.206;11.550;2022-12-20T08:36:44;96272.06;;;2.25;88.37
6218;BME280;3142;48.206;11.550;2022-12-20T08:39:10;96269.22;;;2.28;88.69
6218;BME280;3142;48.206;11.550;2022-12-20T08:41:38;96272.47;;;2.30;88.82
6218;BME280;3142;48.206;11.550;2022-12-20T08:44:05;96281.59;;;2.34;88.74
6218;BME280;3142;48.206;11.550;2022-12-20T08:46:32;96281.19;;;2.38;88.71
6218;BME280;3142;48.206;11.550;2022-12-20T08:48:59;96283.63;;;2.40;87.71
6218;BME280;3142;48.206;11.550;2022-12-20T08:51:25;96280.78;;;2.43;88.02
6218;BME280;3142;48.206;11.550;2022-12-20T08:53:53;96288.81;;;2.50;88.22
6218;BME280;3142;48.206;11.550;2022-12-20T08:56:19;96291.13;;;2.53;88.33
6218;BME280;3142;48.206;11.550;2022-12-20T08:58:47;96288.41;;;2.54;88.37
6218;BME280;3142;48.206;11.550;2022-12-20T09:01:15;96285.28;;;2.60;87.79
6218;BME280;3142;48.206;11.550;2022-12-20T09:03:43;96269.09;;;2.68;88.24
6218;BME280;3142;48.206;11.550;2022-12-20T09:06:12;96270.06;;;2.77;88.05
6218;BME280;3142;48.206;11.550;2022-12-20T09:08:39;96265.97;;;2.84;88.17
6218;BME280;3142;48.206;11.550;2022-12-20T09:11:08;96265.94;;;2.93;87.71
6218;BME280;3142;48.206;11.550;2022-12-20T09:13:36;96253.97;;;3.02;88.28
6218;BME280;3142;48.206;11.550;2022-12-20T09:16:05;96256.41;;;3.04;88.48
6218;BME280;3142;48.206;11.550;2022-12-20T09:18:32;96250.00;;;3.08;88.68
6218;BME280;3142;48.206;11.550;2022-12-20T09:20:59;96249.59;;;3.12;89.20
6218;BME280;3142;48.206;11.550;2022-12-20T09:23:27;96233.63;;;3.26;88.35
6218;BME280;3142;48.206;11.550;2022-12-20T09:25:54;96236.31;;;3.35;88.00
6218;BME280;3142;48.206;11.550;2022-12-20T09:28:21;96235.44;;;3.53;88.17
6218;BME280;3142;48.206;11.550;2022-12-20T09:30:48;96228.28;;;3.65;88.08
6218;BME280;3142;48.206;11.550;2022-12-20T09:33:16;96235.34;;;3.73;87.75
6218;BME280;3142;48.206;11.550;2022-12-20T09:35:44;96232.09;;;3.71;87.33
6218;BME280;3142;48.206;11.550;2022-12-20T09:38:10;96216.78;;;3.77;87.41
6218;BME280;3142;48.206;11.550;2022-12-20T09:40:37;96214.31;;;3.85;87.82
6218;BME280;3142;48.206;11.550;2022-12-20T09:43:08;96212.53;;;3.86;87.78
6218;BME280;3142;48.206;11.550;2022-12-20T09:45:35;96212.00;;;3.82;88.39
6218;BME280;3142;48.206;11.550;2022-12-20T09:48:03;96214.97;;;3.88;87.67
6218;BME280;3142;48.206;11.550;2022-12-20T09:50:44;96209.50;;;3.91;87.68
6218;BME280;3142;48.206;11.550;2022-12-20T09:53:18;96218.06;;;3.91;87.76
6218;BME280;3142;48.206;11.550;2022-12-20T09:55:53;96213.97;;;3.98;87.39
6218;BME280;3142;48.206;11.550;2022-12-20T09:58:34;96201.69;;;4.00;87.31
6218;BME280;3142;48.206;11.550;2022-12-20T10:01:13;96202.34;;;4.02;87.39
6218;BME280;3142;48.206;11.550;2022-12-20T10:03:41;96195.41;;;4.03;87.92
6218;BME280;3142;48.206;11.550;2022-12-20T10:06:12;96206.25;;;4.06;87.69
6218;BME280;3142;48.206;11.550;2022-12-20T10:08:44;96195.34;;;4.12;87.87
6218;BME280;3142;48.206;11.550;2022-12-20T10:11:29;96187.41;;;4.14;87.63
6218;BME280;3142;48.206;11.550;2022-12-20T10:14:06;96197.03;;;4.22;87.96
6218;BME280;3142;48.206;11.550;2022-12-20T10:16:41;96198.94;;;4.20;87.44
6218;BME280;3142;48.206;11.550;2022-12-20T10:19:29;96199.59;;;4.22;87.45
6218;BME280;3142;48.206;11.550;2022-12-20T10:22:06;96201.63;;;4.28;88.06
6218;BME280;3142;48.206;11.550;2022-12-20T10:24:35;96195.69;;;4.35;87.25
6218;BME280;3142;48.206;11.550;2022-12-20T10:27:10;96185.31;;;4.35;87.41
6218;BME280;3142;48.206;11.550;2022-12-20T10:29:38;96190.50;;;4.35;86.69
6218;BME280;3142;48.206;11.550;2022-12-20T10:32:11;96195.03;;;4.33;87.45
6218;BME280;3142;48.206;11.550;2022-12-20T10:34:40;96197.47;;;4.35;87.34
6218;BME280;3142;48.206;11.550;2022-12-20T10:37:11;96192.28;;;4.35;86.81
6218;BME280;3142;48.206;11.550;2022-12-20T10:39:42;96184.66;;;4.33;87.02
6218;BME280;3142;48.206;11.550;2022-12-20T10:42:25;96185.63;;;4.32;86.87
6218;BME280;3142;48.206;11.550;2022-12-20T10:44:52;96178.00;;;4.31;87.07
6218;BME280;3142;48.206;11.550;2022-12-20T10:47:37;96166.19;;;4.28;87.00
6218;BME280;3142;48.206;11.550;2022-12-20T10:50:13;96162.78;;;4.28;86.58
6218;BME280;3142;48.206;11.550;2022-12-20T10:52:42;96147.25;;;4.28;86.85
6218;BME280;3142;48.206;11.550;2022-12-20T10:55:32;96143.84;;;4.27;86.21
6218;BME280;3142;48.206;11.550;2022-12-20T10:58:03;96137.53;;;4.30;87.01
6218;BME280;3142;48.206;11.550;2022-12-20T11:00:31;96146.63;;;4.34;86.54
6218;BME280;3142;48.206;11.550;2022-12-20T11:03:12;96140.94;;;4.30;86.75
6218;BME280;3142;48.206;11.550;2022-12-20T11:05:40;96133.53;;;4.35;87.17
6218;BME280;3142;48.206;11.550;2022-12-20T11:08:21;96134.88;;;4.39;86.16
6218;BME280;3142;48.206;11.550;2022-12-20T11:10:48;96125.31;;;4.40;86.53
6218;BME280;3142;48.206;11.550;2022-12-20T11:13:21;96116.75;;;4.39;86.94
6218;BME280;3142;48.206;11.550;2022-12-20T11:15:49;96120.16;;;4.40;87.03
6218;BME280;3142;48.206;11.550;2022-12-20T11:18:24;96125.97;;;4.42;86.84
6218;BME280;3142;48.206;11.550;2022-12-20T11:20:59;96123.91;;;4.45;87.52
6218;BME280;3142;48.206;11.550;2022-12-20T11:23:37;96111.81;;;4.54;86.73
6218;BME280;3142;48.206;11.550;2022-12-20T11:26:19;96108.13;;;4.57;86.95
6218;BME280;3142;48.206;11.550;2022-12-20T11:29:02;96102.94;;;4.57;86.84
6218;BME280;3142;48.206;11.550;2022-12-20T11:31:41;96093.88;;;4.61;86.89
6218;BME280;3142;48.206;11.550;2022-12-20T11:34:21;96086.81;;;4.71;87.13
6218;BME280;3142;48.206;11.550;2022-12-20T11:37:12;96085.44;;;4.85;86.38
6218;BME280;3142;48.206;11.550;2022-12-20T11:39:50;96083.06;;;4.99;85.96
6218;BME280;3142;48.206;11.550;2022-12-20T11:42:26;96068.38;;;5.16;86.05
6218;BME280;3142;48.206;11.550;2022-12-20T11:45:02;96065.19;;;5.22;85.59
6218;BME280;3142;48.206;11.550;2022-12-20T11:47:48;96063.06;;;5.34;85.69
6218;BME280;3142;48.206;11.550;2022-12-20T11:50:35;96053.06;;;5.47;85.03
6218;BME280;3142;48.206;11.550;2022-12-20T11:53:08;96053.25;;;5.54;84.96
6218;BME280;3142;48.206;11.550;2022-12-20T11:55:40;96047.72;;;5.57;84.77
6218;BME280;3142;48.206;11.550;2022-12-20T11:58:13;96036.53;;;5.56;84.84
6218;BME280;3142;48.206;11.550;2022-12-20T12:00:43;96032.00;;;5.58;85.00
6218;BME280;3142;48.206;11.550;2022-12-20T12:03:14;96037.50;;;5.55;84.93
6218;BME280;3142;48.206;11.550;2022-12-20T12:05:46;96036.53;;;5.48;85.23
6218;BME280;3142;48.206;11.550;2022-12-20T12:08:16;96035.22;;;5.44;85.53
6218;BME280;3142;48.206;11.550;2022-12-20T12:10:52;96032.94;;;5.41;85.94
6218;BME280;3142;48.206;11.550;2022-12-20T12:13:25;96032.16;;;5.41;85.87
6218;BME280;3142;48.206;11.550;2022-12-20T12:15:55;96030.69;;;5.38;86.09
6218;BME280;3142;48.206;11.550;2022-12-20T12:18:24;96029.72;;;5.39;86.38
6218;BME280;3142;48.206;11.550;2022-12-20T12:20:55;96022.75;;;5.40;86.13
6218;BME280;3142;48.206;11.550;2022-12-20T12:23:31;96019.81;;;5.34;86.23
6218;BME280;3142;48.206;11.550;2022-12-20T12:26:04;96020.13;;;5.31;86.32
6218;BME280;3142;48.206;11.550;2022-12-20T12:28:35;96019.78;;;5.26;86.46
6218;BME280;3142;48.206;11.550;2022-12-20T12:31:05;96020.94;;;5.24;86.23
6218;BME280;3142;48.206;11.550;2022-12-20T12:33:36;96019.47;;;5.21;86.24
6218;BME280;3142;48.206;11.550;2022-12-20T12:36:19;96018.50;;;5.22;86.48
6218;BME280;3142;48.206;11.550;2022-12-20T12:42:20;96019.47;;;5.29;86.02
6218;BME280;3142;48.206;11.550;2022-12-20T12:44:53;96013.47;;;5.29;85.89
6218;BME280;3142;48.206;11.550;2022-12-20T12:47:27;96007.31;;;5.22;85.73
6218;BME280;3142;48.206;11.550;2022-12-20T12:50:00;96007.31;;;5.22;86.11
6218;BME280;3142;48.206;11.550;2022-12-20T12:52:38;96005.00;;;5.19;86.48
6218;BME280;3142;48.206;11.550;2022-12-20T12:55:37;95996.25;;;5.20;86.09
6218;BME280;3142;48.206;11.550;2022-12-20T12:58:32;95992.22;;;5.17;86.59
6218;BME280;3142;48.206;11.550;2022-12-20T13:01:01;95989.63;;;5.17;86.77
6218;BME280;3142;48.206;11.550;2022-12-20T13:04:09;95984.44;;;5.17;86.91
6218;BME280;3142;48.206;11.550;2022-12-20T13:06:58;95987.66;;;5.11;86.87
6218;BME280;3142;48.206;11.550;2022-12-20T13:09:37;95985.53;;;5.06;86.82
6218;BME280;3142;48.206;11.550;2022-12-20T13:15:47;96001.56;;;5.02;87.22
6218;BME280;3142;48.206;11.550;2022-12-20T13:18:25;96001.72;;;5.00;87.09
6218;BME280;3142;48.206;11.550;2022-12-20T13:27:32;96013.03;;;4.91;87.59
6218;BME280;3142;48.206;11.550;2022-12-20T13:33:38;96008.97;;;4.81;87.81
6218;BME280;3142;48.206;11.550;2022-12-20T13:36:31;96008.09;;;4.72;87.32
6218;BME280;3142;48.206;11.550;2022-12-20T13:39:01;96030.38;;;4.57;87.33
6218;BME280;3142;48.206;11.550;2022-12-20T13:41:33;96024.16;;;4.41;87.81
6218;BME280;3142;48.206;11.550;2022-12-20T13:44:09;96022.63;;;4.31;87.51
6218;BME280;3142;48.206;11.550;2022-12-20T13:46:47;96018.50;;;4.20;86.95
6218;BME280;3142;48.206;11.550;2022-12-20T13:49:21;96017.19;;;4.16;87.07
6218;BME280;3142;48.206;11.550;2022-12-20T13:52:05;96013.34;;;4.20;87.00
6218;BME280;3142;48.206;11.550;2022-12-20T13:54:38;96007.84;;;4.23;86.97
6218;BME280;3142;48.206;11.550;2022-12-20T13:57:06;95999.41;;;4.21;86.38